createdAt,value
2022-11-13T00:02:01.431Z,99.40
2022-11-13T00:04:51.476Z,99.60
2022-11-13T00:07:40.061Z,99.80
2022-11-13T00:10:28.855Z,99.70
2022-11-13T00:13:17.693Z,99.90
2022-11-13T00:16:08.462Z,99.90
2022-11-13T00:18:57.157Z,99.90
2022-11-13T00:21:47.205Z,99.90
2022-11-13T00:24:35.838Z,99.90
2022-11-13T00:27:24.527Z,99.90
2022-11-13T00:30:19.053Z,99.90
2022-11-13T00:33:08.167Z,99.90
2022-11-13T00:36:03.546Z,99.90
2022-11-13T00:38:54.138Z,99.90
2022-11-13T00:41:42.736Z,99.90
2022-11-13T00:44:31.699Z,99.90
2022-11-13T00:47:20.272Z,99.90
2022-11-13T00:50:09.385Z,99.90
2022-11-13T00:52:57.976Z,99.90
2022-11-13T00:55:48.267Z,99.90
2022-11-13T00:58:38.197Z,99.90
2022-11-13T01:01:26.919Z,99.90
2022-11-13T01:04:15.566Z,99.90
2022-11-13T01:07:04.168Z,99.90
2022-11-13T01:09:53.049Z,99.90
2022-11-13T01:12:43.056Z,99.90
2022-11-13T01:15:31.863Z,99.90
2022-11-13T01:18:20.481Z,99.90
2022-11-13T01:21:11.079Z,99.90
2022-11-13T01:23:59.673Z,99.90
2022-11-13T01:26:48.443Z,99.90
2022-11-13T01:29:39.064Z,99.90
2022-11-13T01:32:27.722Z,99.90
2022-11-13T01:35:16.451Z,99.80
2022-11-13T01:38:05.069Z,99.90
2022-11-13T01:40:53.718Z,99.40
2022-11-13T01:43:42.350Z,98.70
2022-11-13T01:46:34.648Z,97.70
2022-11-13T01:49:30.203Z,97.50
2022-11-13T01:52:21.341Z,97.20
2022-11-13T01:55:13.679Z,96.00
2022-11-13T01:58:03.831Z,94.70
2022-11-13T02:00:52.476Z,91.30
2022-11-13T02:03:42.647Z,91.10
2022-11-13T02:06:35.689Z,89.60
2022-11-13T02:09:27.880Z,88.20
2022-11-13T02:12:20.019Z,87.80
2022-11-13T02:15:09.799Z,88.40
2022-11-13T02:18:00.405Z,89.50
2022-11-13T02:20:57.489Z,89.80
2022-11-13T02:23:52.058Z,91.10
2022-11-13T02:26:42.601Z,91.20
2022-11-13T02:29:31.255Z,91.70
2022-11-13T02:32:19.812Z,91.90
2022-11-13T02:35:08.944Z,93.10
2022-11-13T02:38:00.275Z,93.80
2022-11-13T02:40:48.866Z,94.70
2022-11-13T02:43:38.846Z,94.30
2022-11-13T02:46:27.462Z,93.60
2022-11-13T02:49:16.094Z,94.10
2022-11-13T02:52:04.798Z,93.30
2022-11-13T02:54:53.493Z,91.70
2022-11-13T02:57:42.084Z,91.90
2022-11-13T03:00:32.242Z,89.50
2022-11-13T03:03:41.081Z,82.90
2022-11-13T03:06:29.467Z,78.40
2022-11-13T03:09:18.191Z,74.50
2022-11-13T03:12:08.115Z,70.00
2022-11-13T03:14:56.720Z,67.90
2022-11-13T03:17:46.602Z,67.40
2022-11-13T03:20:37.454Z,67.10
2022-11-13T03:23:26.067Z,68.10
2022-11-13T03:26:16.951Z,70.20
2022-11-13T03:29:05.580Z,71.20
2022-11-13T03:31:54.216Z,72.30
2022-11-13T03:34:44.297Z,75.70
2022-11-13T03:37:33.129Z,77.80
2022-11-13T03:40:21.755Z,80.20
2022-11-13T03:43:10.462Z,81.90
2022-11-13T03:45:59.140Z,81.90
2022-11-13T03:48:47.741Z,82.20
2022-11-13T03:51:37.750Z,82.10
2022-11-13T03:54:26.427Z,82.60
2022-11-13T03:57:15.084Z,83.50
2022-11-13T04:00:04.060Z,84.50
2022-11-13T04:02:52.692Z,84.50
2022-11-13T04:05:41.455Z,80.00
2022-11-13T04:08:31.540Z,75.80
2022-11-13T04:11:20.195Z,72.20
2022-11-13T04:14:08.849Z,70.70
2022-11-13T04:16:57.488Z,69.30
2022-11-13T04:19:46.081Z,70.80
2022-11-13T04:22:34.724Z,72.00
2022-11-13T04:25:24.864Z,73.40
2022-11-13T04:28:13.481Z,73.20
2022-11-13T04:31:02.056Z,73.20
2022-11-13T04:33:50.692Z,71.50
2022-11-13T04:36:39.300Z,69.40
2022-11-13T04:39:27.963Z,69.00
2022-11-13T04:42:35.271Z,68.90
2022-11-13T04:45:27.551Z,69.70
2022-11-13T04:48:16.174Z,69.70
2022-11-13T04:51:04.959Z,68.50
2022-11-13T04:53:53.604Z,68.50
2022-11-13T04:56:42.303Z,68.20
2022-11-13T04:59:32.344Z,68.50
2022-11-13T05:02:21.100Z,66.80
2022-11-13T05:05:10.345Z,66.90
2022-11-13T05:07:58.895Z,64.90
2022-11-13T05:10:47.507Z,64.10
2022-11-13T05:13:37.825Z,63.30
2022-11-13T05:16:27.886Z,61.70
2022-11-13T05:19:16.693Z,61.60
2022-11-13T05:22:05.636Z,59.90
2022-11-13T05:24:54.187Z,57.30
2022-11-13T05:27:42.758Z,57.50
2022-11-13T05:30:31.352Z,56.40
2022-11-13T05:33:21.388Z,55.30
2022-11-13T05:36:11.884Z,53.70
2022-11-13T05:39:00.586Z,51.50
2022-11-13T05:41:49.196Z,50.80
2022-11-13T05:44:37.803Z,52.90
2022-11-13T05:47:26.360Z,53.80
2022-11-13T05:50:16.834Z,54.20
2022-11-13T05:53:05.393Z,55.60
2022-11-13T05:55:54.088Z,54.00
2022-11-13T05:58:44.687Z,56.00
2022-11-13T06:01:35.162Z,61.80
2022-11-13T06:04:23.829Z,62.80
2022-11-13T06:07:13.844Z,65.70
2022-11-13T06:10:02.506Z,68.10
2022-11-13T06:12:51.118Z,70.10
2022-11-13T06:15:39.718Z,72.00
2022-11-13T06:18:28.527Z,75.50
2022-11-13T06:21:20.537Z,77.20
2022-11-13T06:24:13.917Z,77.50
2022-11-13T06:27:02.504Z,76.00
2022-11-13T06:29:51.186Z,74.50
2022-11-13T06:32:39.767Z,72.60
2022-11-13T06:35:28.704Z,69.60
2022-11-13T06:38:17.270Z,66.00
2022-11-13T06:41:08.415Z,63.60
2022-11-13T06:44:02.066Z,61.10
2022-11-13T06:46:51.425Z,59.80
2022-11-13T06:49:40.024Z,58.40
2022-11-13T06:52:28.590Z,56.80
2022-11-13T06:55:17.291Z,53.10
2022-11-13T06:58:07.370Z,50.80
2022-11-13T07:00:56.081Z,47.70
2022-11-13T07:03:45.347Z,48.20
2022-11-13T07:06:39.086Z,46.30
2022-11-13T07:09:29.081Z,44.60
2022-11-13T07:12:17.631Z,40.70
2022-11-13T07:15:08.496Z,38.70
2022-11-13T07:17:57.049Z,37.40
2022-11-13T07:20:45.933Z,35.50
2022-11-13T07:23:34.953Z,33.60
2022-11-13T07:26:24.264Z,32.00
2022-11-13T07:29:13.511Z,33.00
2022-11-13T07:32:03.614Z,31.60
2022-11-13T07:34:52.375Z,30.20
2022-11-13T07:37:41.100Z,27.00
2022-11-13T07:40:29.749Z,25.50
2022-11-13T07:43:18.428Z,23.40
2022-11-13T07:46:07.644Z,23.70
2022-11-13T07:48:57.602Z,20.50
2022-11-13T07:51:46.236Z,21.40
2022-11-13T07:54:35.040Z,9.50
2022-11-13T07:57:24.088Z,11.40
2022-11-13T08:00:13.698Z,12.50
2022-11-13T08:03:07.525Z,6.60
2022-11-13T08:06:01.804Z,4.30
2022-11-13T08:08:50.623Z,1.50
2022-11-13T08:11:39.292Z,1.00
2022-11-13T08:14:27.871Z,1.00
2022-11-13T08:17:16.433Z,1.00
2022-11-13T08:20:06.117Z,1.00
2022-11-13T08:22:58.777Z,1.00
2022-11-13T08:25:47.408Z,1.00
2022-11-13T08:28:36.559Z,1.00
2022-11-13T08:31:25.157Z,1.00
2022-11-13T08:34:13.775Z,1.00
2022-11-13T08:37:02.397Z,1.00
2022-11-13T08:39:52.375Z,1.00
2022-11-13T08:42:41.071Z,1.00
2022-11-13T08:45:30.160Z,1.00
2022-11-13T08:48:19.333Z,1.00
2022-11-13T08:51:07.914Z,1.00
2022-11-13T08:53:56.516Z,1.00
2022-11-13T08:56:52.960Z,1.00
2022-11-13T08:59:44.282Z,1.00
2022-11-13T09:02:32.970Z,2.80
2022-11-13T09:05:21.565Z,1.00
2022-11-13T09:08:10.743Z,1.00
2022-11-13T09:11:03.092Z,1.00
2022-11-13T09:13:53.604Z,1.00
2022-11-13T09:16:43.192Z,1.00
2022-11-13T09:19:31.752Z,5.30
2022-11-13T09:22:20.365Z,14.90
2022-11-13T09:25:10.033Z,23.00
2022-11-13T09:28:00.291Z,38.80
2022-11-13T09:30:50.349Z,40.20
2022-11-13T09:33:38.899Z,38.80
2022-11-13T09:36:27.473Z,45.50
2022-11-13T09:39:17.049Z,47.10
2022-11-13T09:42:14.101Z,41.20
2022-11-13T09:45:08.164Z,49.30
2022-11-13T09:48:08.350Z,50.00
2022-11-13T09:50:58.780Z,45.20
2022-11-13T09:53:48.535Z,36.70
2022-11-13T09:56:41.662Z,31.90
2022-11-13T09:59:36.801Z,23.70
2022-11-13T10:02:35.048Z,24.50
2022-11-13T10:05:33.087Z,24.10
2022-11-13T10:08:28.632Z,23.00
2022-11-13T10:11:25.045Z,26.70
2022-11-13T10:14:18.910Z,21.40
2022-11-13T10:17:16.452Z,16.40
2022-11-13T10:20:11.075Z,22.80
2022-11-13T10:23:09.581Z,25.80
2022-11-13T10:26:03.043Z,30.90
2022-11-13T10:29:00.229Z,18.40
2022-11-13T10:31:51.795Z,13.20
2022-11-13T10:34:41.289Z,13.40
2022-11-13T10:37:47.283Z,3.50
2022-11-13T10:40:39.174Z,1.00
2022-11-13T10:43:28.692Z,1.00
2022-11-13T10:46:21.738Z,1.00
2022-11-13T10:49:14.891Z,1.00
2022-11-13T10:52:08.524Z,1.00
2022-11-13T10:55:17.294Z,1.00
2022-11-13T10:58:14.723Z,1.00
2022-11-13T11:01:03.344Z,1.00
2022-11-13T11:03:52.720Z,1.00
2022-11-13T11:07:19.079Z,1.00
2022-11-13T11:09:53.115Z,1.00
2022-11-13T11:12:42.987Z,1.00
2022-11-13T11:15:40.854Z,1.00
2022-11-13T11:18:35.474Z,1.00
2022-11-13T11:21:28.006Z,1.00
2022-11-13T11:24:20.880Z,1.00
2022-11-13T11:27:16.078Z,3.60
2022-11-13T11:30:07.232Z,5.30
2022-11-13T11:33:06.019Z,7.10
2022-11-13T11:36:02.044Z,7.20
2022-11-13T11:39:01.018Z,7.70
2022-11-13T11:41:57.430Z,7.30
2022-11-13T11:45:02.232Z,5.90
2022-11-13T11:47:51.415Z,7.20
2022-11-13T11:50:47.287Z,4.50
2022-11-13T11:53:53.693Z,1.80
2022-11-13T11:56:46.697Z,1.00
2022-11-13T12:00:10.119Z,1.40
2022-11-13T12:03:28.039Z,1.20
2022-11-13T12:06:25.391Z,1.00
2022-11-13T12:09:22.975Z,1.00
2022-11-13T12:12:21.821Z,1.00
2022-11-13T12:15:15.188Z,1.00
2022-11-13T12:18:16.216Z,1.50
2022-11-13T12:21:22.445Z,2.60
2022-11-13T12:24:37.886Z,4.90
2022-11-13T12:27:32.679Z,6.30
2022-11-13T12:30:24.018Z,7.00
2022-11-13T12:33:24.734Z,4.60
2022-11-13T12:36:14.787Z,1.70
2022-11-13T12:39:24.359Z,1.00
2022-11-13T12:42:22.074Z,1.00
2022-11-13T12:45:19.771Z,1.00
2022-11-13T12:48:11.663Z,1.00
2022-11-13T12:51:01.633Z,1.00
2022-11-13T12:53:52.119Z,1.00
2022-11-13T12:56:42.148Z,1.00
2022-11-13T12:59:34.852Z,1.00
2022-11-13T13:02:33.724Z,1.00
2022-11-13T13:05:30.536Z,1.00
2022-11-13T13:08:42.491Z,1.00
2022-11-13T13:11:41.519Z,1.00
2022-11-13T13:14:46.611Z,1.00
2022-11-13T13:17:35.379Z,1.00
2022-11-13T13:20:33.516Z,1.00
2022-11-13T13:23:29.193Z,1.00
2022-11-13T13:26:21.125Z,1.00
2022-11-13T13:29:19.068Z,1.00
2022-11-13T13:32:21.219Z,1.00
2022-11-13T13:35:16.022Z,1.00
2022-11-13T13:38:14.816Z,1.00
2022-11-13T13:41:16.713Z,1.00
2022-11-13T13:44:28.333Z,1.00
2022-11-13T13:47:25.220Z,1.00
2022-11-13T13:50:16.518Z,1.00
2022-11-13T13:53:05.160Z,1.00
2022-11-13T13:55:56.500Z,1.00
2022-11-13T13:58:45.080Z,1.00
2022-11-13T14:01:34.970Z,1.00
2022-11-13T14:04:26.295Z,1.00
2022-11-13T14:07:24.566Z,1.00
2022-11-13T14:10:18.428Z,1.00
2022-11-13T14:13:07.027Z,1.00
2022-11-13T14:16:03.436Z,1.00
2022-11-13T14:18:52.030Z,1.00
2022-11-13T14:21:42.511Z,1.00
2022-11-13T14:24:34.738Z,1.00
2022-11-13T14:27:27.578Z,1.00
2022-11-13T14:30:25.645Z,1.00
2022-11-13T14:33:24.228Z,1.00
2022-11-13T14:36:13.734Z,1.00
2022-11-13T14:39:04.168Z,1.00
2022-11-13T14:41:56.891Z,1.00
2022-11-13T14:44:45.510Z,1.00
2022-11-13T14:47:37.627Z,1.00
2022-11-13T14:50:28.828Z,1.00
2022-11-13T14:53:28.331Z,1.00
2022-11-13T14:56:18.498Z,1.00
2022-11-13T14:59:16.863Z,1.00
2022-11-13T15:02:08.097Z,1.00
2022-11-13T15:04:56.630Z,1.00
2022-11-13T15:07:46.859Z,1.00
2022-11-13T15:10:35.500Z,1.00
2022-11-13T15:13:25.841Z,1.00
2022-11-13T15:16:16.853Z,1.00
2022-11-13T15:19:08.927Z,1.00
2022-11-13T15:22:26.742Z,1.00
2022-11-13T15:25:13.581Z,1.00
2022-11-13T15:28:02.177Z,1.00
2022-11-13T15:30:52.856Z,1.00
2022-11-13T15:33:41.492Z,1.20
2022-11-13T15:36:30.158Z,1.70
2022-11-13T15:39:23.659Z,3.00
2022-11-13T15:42:16.920Z,4.70
2022-11-13T15:45:07.198Z,6.10
2022-11-13T15:47:57.240Z,9.40
2022-11-13T15:50:46.784Z,12.30
2022-11-13T15:53:35.445Z,12.40
2022-11-13T15:56:25.085Z,12.20
2022-11-13T15:59:15.445Z,13.10
2022-11-13T16:02:04.069Z,13.60
2022-11-13T16:04:57.190Z,15.20
2022-11-13T16:07:45.958Z,17.00
2022-11-13T16:10:34.545Z,18.50
2022-11-13T16:13:23.110Z,19.60
2022-11-13T16:16:17.365Z,20.70
2022-11-13T16:19:13.050Z,22.70
2022-11-13T16:22:03.074Z,25.30
2022-11-13T16:24:51.684Z,26.80
2022-11-13T16:27:40.395Z,27.90
2022-11-13T16:30:31.441Z,28.20
2022-11-13T16:33:20.030Z,29.70
2022-11-13T16:36:14.898Z,29.50
2022-11-13T16:39:05.563Z,28.30
2022-11-13T16:41:54.147Z,27.20
2022-11-13T16:44:42.970Z,27.00
2022-11-13T16:47:32.767Z,27.20
2022-11-13T16:50:24.195Z,28.70
2022-11-13T16:53:12.936Z,29.40
2022-11-13T16:56:03.472Z,30.90
2022-11-13T16:58:52.086Z,31.50
2022-11-13T17:01:40.755Z,28.90
2022-11-13T17:04:29.373Z,28.70
2022-11-13T17:07:18.072Z,26.40
2022-11-13T17:13:17.299Z,25.30
2022-11-13T17:16:06.297Z,25.70
2022-11-13T17:18:55.852Z,26.00
2022-11-13T17:21:44.772Z,27.10
2022-11-13T17:24:33.403Z,29.80
2022-11-13T17:27:22.092Z,31.50
2022-11-13T17:30:13.394Z,33.80
2022-11-13T17:33:01.992Z,36.20
2022-11-13T17:35:55.992Z,37.50
2022-11-13T17:38:44.640Z,37.90
2022-11-13T17:41:34.176Z,37.80
2022-11-13T17:44:22.928Z,36.10
2022-11-13T17:47:12.944Z,35.60
2022-11-13T17:50:07.150Z,35.50
2022-11-13T17:52:57.402Z,28.30
2022-11-13T17:55:54.348Z,26.10
2022-11-13T17:58:44.313Z,17.40
2022-11-13T18:01:33.809Z,14.10
2022-11-13T18:04:23.981Z,9.80
2022-11-13T18:07:12.688Z,4.10
2022-11-13T18:10:01.271Z,3.20
2022-11-13T18:12:49.918Z,1.50
2022-11-13T18:15:39.503Z,1.00
2022-11-13T18:18:28.170Z,1.00
2022-11-13T18:21:23.228Z,1.00
2022-11-13T18:24:15.222Z,1.00
2022-11-13T18:27:06.013Z,1.10
2022-11-13T18:29:54.821Z,1.70
2022-11-13T18:32:43.412Z,1.00
2022-11-13T18:35:32.528Z,2.20
2022-11-13T18:38:22.558Z,1.40
2022-11-13T18:41:12.545Z,2.40
2022-11-13T18:44:01.188Z,2.50
2022-11-13T18:46:49.773Z,3.60
2022-11-13T18:49:38.399Z,3.40
2022-11-13T18:52:27.028Z,2.90
2022-11-13T18:55:17.153Z,2.20
2022-11-13T18:58:05.748Z,1.10
2022-11-13T19:00:54.352Z,1.00
2022-11-13T19:04:08.142Z,1.00
2022-11-13T19:06:55.112Z,1.00
2022-11-13T19:09:46.094Z,1.00
2022-11-13T19:12:36.053Z,1.00
2022-11-13T19:15:24.693Z,1.00
2022-11-13T19:18:13.304Z,1.00
2022-11-13T19:21:06.229Z,1.00
2022-11-13T19:23:55.263Z,1.00
2022-11-13T19:26:44.182Z,1.00
2022-11-13T19:29:34.187Z,1.00
2022-11-13T19:32:22.765Z,1.00
2022-11-13T19:35:11.358Z,1.90
2022-11-13T19:38:01.022Z,3.60
2022-11-13T19:40:51.742Z,3.70
2022-11-13T19:43:41.591Z,4.10
2022-11-13T19:46:34.060Z,5.10
2022-11-13T19:49:22.735Z,5.90
2022-11-13T19:52:11.318Z,4.80
2022-11-13T19:54:59.958Z,4.60
2022-11-13T19:57:50.178Z,5.10
2022-11-13T20:00:38.836Z,5.60
2022-11-13T20:03:28.868Z,5.30
2022-11-13T20:06:18.892Z,6.30
2022-11-13T20:09:07.821Z,4.90
2022-11-13T20:11:56.400Z,4.30
2022-11-13T20:14:45.018Z,4.80
2022-11-13T20:17:33.545Z,4.60
2022-11-13T20:20:23.552Z,5.50
2022-11-13T20:23:12.221Z,7.10
2022-11-13T20:26:02.457Z,7.40
2022-11-13T20:28:51.100Z,8.30
2022-11-13T20:31:39.682Z,9.50
2022-11-13T20:34:28.398Z,11.10
2022-11-13T20:37:18.372Z,13.30
2022-11-13T20:40:08.124Z,14.60
2022-11-13T20:42:56.731Z,15.90
2022-11-13T20:45:45.334Z,18.10
2022-11-13T20:48:34.361Z,21.80
2022-11-13T20:51:25.118Z,23.70
2022-11-13T20:54:15.133Z,24.90
2022-11-13T20:57:03.802Z,27.10
2022-11-13T20:59:52.598Z,27.70
2022-11-13T21:02:41.173Z,29.40
2022-11-13T21:05:29.992Z,30.60
2022-11-13T21:08:18.557Z,31.60
2022-11-13T21:11:09.365Z,32.40
2022-11-13T21:13:59.399Z,33.40
2022-11-13T21:16:48.010Z,34.90
2022-11-13T21:19:36.578Z,35.20
2022-11-13T21:22:25.161Z,35.50
2022-11-13T21:25:13.873Z,36.60
2022-11-13T21:28:04.343Z,38.70
2022-11-13T21:30:52.890Z,38.20
2022-11-13T21:33:43.091Z,38.90
2022-11-13T21:36:31.898Z,41.00
2022-11-13T21:39:20.481Z,46.00
2022-11-13T21:42:09.139Z,47.70
2022-11-13T21:44:59.114Z,50.10
2022-11-13T21:47:47.712Z,50.30
2022-11-13T21:50:36.298Z,53.10
2022-11-13T21:53:24.891Z,55.30
2022-11-13T21:56:15.781Z,55.10
2022-11-13T21:59:05.529Z,54.90
2022-11-13T22:01:55.549Z,55.90
2022-11-13T22:04:44.220Z,55.70
2022-11-13T22:07:32.792Z,56.60
2022-11-13T22:10:21.388Z,56.40
2022-11-13T22:13:10.062Z,57.80
2022-11-13T22:15:58.666Z,58.00
2022-11-13T22:18:48.929Z,58.50
2022-11-13T22:21:38.076Z,59.10
2022-11-13T22:24:26.739Z,61.80
2022-11-13T22:27:15.356Z,63.90
2022-11-13T22:30:04.519Z,63.90
2022-11-13T22:32:53.059Z,62.70
2022-11-13T22:35:43.046Z,62.60
2022-11-13T22:38:32.197Z,63.40
2022-11-13T22:41:23.974Z,62.90
2022-11-13T22:44:15.109Z,62.10
2022-11-13T22:47:03.685Z,63.50
2022-11-13T22:49:52.264Z,63.70
2022-11-13T22:52:42.302Z,60.20
2022-11-13T22:55:30.892Z,61.20
2022-11-13T22:58:19.551Z,63.80
2022-11-13T23:01:09.741Z,61.90
2022-11-13T23:04:01.060Z,59.60
2022-11-13T23:06:49.738Z,59.00
2022-11-13T23:09:39.725Z,56.40
2022-11-13T23:12:28.457Z,57.30
2022-11-13T23:15:17.181Z,53.60
2022-11-13T23:18:09.701Z,51.00
2022-11-13T23:20:58.749Z,49.70
2022-11-13T23:23:47.564Z,51.50
2022-11-13T23:26:37.646Z,49.50
2022-11-13T23:29:26.291Z,49.30
2022-11-13T23:32:14.889Z,50.60
2022-11-13T23:35:03.450Z,54.80
2022-11-13T23:37:52.058Z,57.90
2022-11-13T23:40:40.980Z,57.60
2022-11-13T23:44:02.169Z,58.00
2022-11-13T23:46:40.632Z,59.80
2022-11-13T23:49:29.171Z,60.00
2022-11-13T23:52:17.849Z,61.20
2022-11-13T23:55:07.092Z,61.60
2022-11-13T23:58:00.659Z,62.70
